METAR Data
IDs: Format: Raw Decoded Include TAF

Data at: 0226 UTC 10 Dec 2022

METAR for:KMIE (Muncie/Johnson Fld, IN, US)
Text:KMIE 100153Z 06008KT 5SM BR OVC006 04/02 A3014 RMK AO2 SLP209 T00440022
Temperature: 4.4°C ( 40°F)
Dewpoint: 2.2°C ( 36°F) [RH = 86%]
Pressure (altimeter):30.14 inches Hg (1020.7 mb) [Sea level pressure: 1020.9 mb]
Winds:from the ENE (60 degrees) at 9 MPH (8 knots; 4.1 m/s)
Visibility: 5 sm ( 8 km)
Ceiling:600 feet AGL
Clouds: overcast cloud deck at 600 feet AGL
Weather:BR (mist)